deformed-offering

Nearby METAR Reports

 

KSJC - San Jose, California, USA
Distance from station: NE 9mi, 14km
Updated: Mon, 25-Oct-2021 4:53pm PDT
Mostly Cloudy
Mostly Cloudy
 Wind from WNW
Wind: WNW 12 mph , 19 km/h
Temperature: 64°F , 18°C
Dew Point: 46°F , 8°C
Humidity: 52%
Barometer: 29.91 inHg , 1012.9 hPa
Clouds: Mostly Cloudy
Visibility: 10 miles , 16 km
Cloud details: Few Clouds 3200 ft
Partly Cloudy 4800 ft
Mostly Cloudy 6500 ft
2021/10/25 23:53 KSJC 252353Z 30010KT 10SM FEW032 SCT048TCU BKN065 18/08 A2991 RMK AO2 SLP126 TCU OHD TCU NW-S TCU DSNT ALQDS T01780078 10194 20161 53016
KRHV - San Jose/Reid, California, USA
Distance from station: ENE 12mi, 19km
Updated: Mon, 25-Oct-2021 4:50pm PDT
Mostly Cloudy
Mostly Cloudy
 Wind from W
Wind: W 8 mph , 13 km/h
Temperature: 63°F , 17°C
Dew Point: 45°F , 7°C
Humidity: 52%
Barometer: 29.91 inHg , 1012.9 hPa
Clouds: Mostly Cloudy
Visibility: 10 miles , 16 km
Cloud details: Mostly Cloudy 4000 ft
2021/10/25 23:50 KRHV 252350Z 28007KT 10SM BKN040 17/07 A2991
 
KPAO - Palo Alto, California, USA
Distance from station: NNW 14mi, 23km
Updated: Mon, 25-Oct-2021 4:47pm PDT
Mostly Cloudy
Mostly Cloudy
 Wind from WNW
Wind: WNW 10 mph , 17 km/h
Temperature: 63°F , 17°C
Dew Point: 46°F , 8°C
Humidity: 56%
Barometer: 29.92 inHg , 1013.2 hPa
Clouds: Mostly Cloudy
Visibility: 10 miles , 16 km
Cloud details: Mostly Cloudy 3000 ft
2021/10/25 23:47 KPAO 252347Z 29009KT 10SM BKN030 17/08 A2992
KSQL - San Carlos Airpo, California, USA
Distance from station: NW 21mi, 34km
Updated: Mon, 25-Oct-2021 3:50pm PDT
Partly Cloudy
Partly Cloudy
 Wind from WSW
Wind: WSW 13 mph , 20 km/h, Gust: 18 mph , 30 km/h
Temperature: 63°F , 17°C
Dew Point: 48°F , 9°C
Humidity: 59%
Barometer: 29.91 inHg , 1012.9 hPa
Clouds: Partly Cloudy
Visibility: 10 miles , 16 km
Cloud details: Partly Cloudy 3400 ft
Partly Cloudy 4100 ft
2021/10/25 22:50 KSQL 252250Z 25011G16KT 10SM SCT034 SCT041 17/09 A2991
 
KWVI - Watsonville, California, USA
Distance from station: SSE 27mi, 44km
Updated: Mon, 25-Oct-2021 4:53pm PDT
Clear
Clear
 Wind from WSW
Wind: WSW 13 mph , 20 km/h
Temperature: 61°F , 16°C
Dew Point: 52°F , 11°C
Humidity: 72%
Barometer: 29.92 inHg , 1013.2 hPa
Clouds: Clear
Visibility: 10 miles , 16 km
2021/10/25 23:53 KWVI 252353Z AUTO 24011KT 10SM CLR 16/11 A2992 RMK AO2 SLP132 T01560106 10183 20150 53016
KHWD - Hayward, California, USA
Distance from station: N 28mi, 44km
Updated: Mon, 25-Oct-2021 4:54pm PDT
Partly Cloudy
Partly Cloudy
 Wind from W
Wind: W 12 mph , 19 km/h
Temperature: 61°F , 16°C
Dew Point: 50°F , 10°C
Humidity: 68%
Barometer: 29.91 inHg , 1012.9 hPa
Clouds: Partly Cloudy
Visibility: 10 miles , 16 km
Cloud details: Partly Cloudy 3000 ft
2021/10/25 23:54 KHWD 252354Z 28010KT 10SM SCT030 16/10 A2991 RMK AO2 SLP138 T01610100 10172 20156 53016
 
KSFO - San Francisco, California, USA
Distance from station: NW 30mi, 49km
Updated: Mon, 25-Oct-2021 4:56pm PDT
Partly Cloudy
Partly Cloudy
 Wind from W
Wind: W 15 mph , 24 km/h
Temperature: 61°F , 16°C
Dew Point: 50°F , 10°C
Humidity: 68%
Barometer: 29.91 inHg , 1012.9 hPa
Clouds: Partly Cloudy
Visibility: 10 miles , 16 km
Cloud details: Few Clouds 2800 ft
Partly Cloudy 4100 ft
2021/10/25 23:56 KSFO 252356Z 27013KT 10SM FEW028 SCT041 16/10 A2991 RMK AO2 SLP128 T01610100 10172 20156 53017
KHAF - Half Moon Bay, California, USA
Distance from station: WNW 31mi, 50km
Updated: Mon, 25-Oct-2021 4:55pm PDT
Haze, Clear
Haze, Clear
 Wind from NW
Wind: NW 8 mph , 13 km/h
Temperature: 59°F , 15°C
Dew Point: 54°F , 12°C
Humidity: 82%
Barometer: 29.92 inHg , 1013.2 hPa
Summary: Haze
Clouds: Clear
Visibility: 4 miles , 6 km
2021/10/25 23:55 KHAF 252355Z AUTO 31007KT 4SM HZ CLR 15/12 A2992 RMK AO2
 
KLVK - Livermore, California, USA
Distance from station: NNE 31mi, 51km
Updated: Mon, 25-Oct-2021 4:53pm PDT
Clear
Clear
 Wind from WSW
Wind: WSW 16 mph , 26 km/h
Temperature: 61°F , 16°C
Dew Point: 46°F , 8°C
Humidity: 59%
Barometer: 29.90 inHg , 1012.5 hPa
Clouds: Clear
Visibility: 10 miles , 16 km
2021/10/25 23:53 KLVK 252353Z 25014KT 10SM CLR 16/08 A2990 RMK AO2 SLP123 T01610078 10178 20150 53019
KOAK - Oakland, California, USA
Distance from station: NNW 33mi, 53km
Updated: Mon, 25-Oct-2021 4:53pm PDT
Partly Cloudy
Partly Cloudy
 Wind from W
Wind: W 13 mph , 20 km/h
Temperature: 63°F , 17°C
Dew Point: 52°F , 11°C
Humidity: 68%
Barometer: 29.91 inHg , 1012.9 hPa
Clouds: Partly Cloudy
Visibility: 10 miles , 16 km
Cloud details: Partly Cloudy 2000 ft
Partly Cloudy 3500 ft
2021/10/25 23:53 KOAK 252353Z 27011KT 10SM SCT020 SCT035 17/11 A2991 RMK AO2 SLP129 T01670106 10183 20167 53016
 
KCVH - Hollister Muni, California, USA
Distance from station: SE 42mi, 68km
Updated: Mon, 25-Oct-2021 4:55pm PDT
Clear
Clear
 Wind from WSW
Wind: WSW 18 mph , 30 km/h
Temperature: 61°F , 16°C
Dew Point: 48°F , 9°C
Humidity: 63%
Barometer: 29.92 inHg , 1013.2 hPa
Clouds: Clear
Visibility: 10 miles , 16 km
2021/10/25 23:55 KCVH 252355Z AUTO 24016KT 10SM CLR 16/09 A2992 RMK A01 P0009
KSNS - Salinas, California, USA
Distance from station: SSE 48mi, 77km
Updated: Mon, 25-Oct-2021 4:53pm PDT
Mostly Cloudy
Mostly Cloudy
 Wind from W
Wind: W 14 mph , 22 km/h
Temperature: 63°F , 17°C
Dew Point: 52°F , 11°C
Humidity: 68%
Barometer: 29.93 inHg , 1013.5 hPa
Clouds: Mostly Cloudy
Visibility: 10 miles , 16 km
Cloud details: Mostly Cloudy 2600 ft
Mostly Cloudy 3300 ft
Mostly Cloudy 5000 ft
2021/10/25 23:53 KSNS 252353Z 28012KT 10SM BKN026 BKN033 BKN050 17/11 A2993 RMK AO2 SLP143 T01720106 10183 20161 53015
 
KMRY - Monterey, California, USA
Distance from station: SSE 49mi, 78km
Updated: Mon, 25-Oct-2021 4:54pm PDT
Light rain, Mostly cloudy
Light rain, Mostly cloudy
 Wind from WSW
Wind: WSW 12 mph , 19 km/h
Temperature: 61°F , 16°C
Dew Point: 52°F , 11°C
Humidity: 72%
Barometer: 29.94 inHg , 1013.9 hPa
Summary: Light Rain
Clouds: Mostly Cloudy
Visibility: 10 miles , 16 km
Cloud details: Partly Cloudy 2200 ft
Mostly Cloudy 2900 ft
2021/10/25 23:54 KMRY 252354Z 25010KT 10SM -RA SCT022 BKN029 16/11 A2994 RMK AO2 SLP150 P0000 60000 T01610106 10178 20156 53014
KCCR - Concord, California, USA
Distance from station: N 50mi, 81km
Updated: Mon, 25-Oct-2021 4:53pm PDT
Few Clouds
Few Clouds
 Wind from WSW
Wind: WSW 9 mph , 15 km/h
Temperature: 59°F , 15°C
Dew Point: 52°F , 11°C
Humidity: 77%
Barometer: 29.90 inHg , 1012.5 hPa
Clouds: Few Clouds
Visibility: 10 miles , 16 km
Cloud details: Few Clouds 8500 ft
2021/10/25 23:53 KCCR 252353Z 24008KT 10SM FEW085 15/11 A2990 RMK AO2 RAB15E28 SLP111 P0000 60011 T01500106 10183 20144 51020
deformed-offering